Terminal Aerodrome Forecast
Issued by NWS

Home | Current Version | Previous Version | Text Only | Print | Product List | Glossary On
Versions: 1 2 3 4 5 6 7 8 9 10 11 12 13 14 15 16 17 18 19 20 21
000
FTUS43 KJKL 292300
TAFSJS
TAF
KSJS 292337Z 3000/3024 30010G22KT P6SM -DZ BKN022 OVC050
     FM300400 30009G18KT 3SM -SHSN OVC012
     FM301900 33010G18KT P6SM OVC022=

USA.gov is the U.S. government's official web portal to all federal, state and local government web resources and services.